Time;durP1;ratioP1;P1;durP2;ratioP2;P2;SDS_P1;SDS_P2;PMS_P1;PMS_P2;Temp;Humidity;BMP_temperature;BMP_pressure;BME280_temperature;BME280_humidity;BME280_pressure;Samples;Min_cycle;Max_cycle;Signal;HPM_P1;HPM_P2
2022/08/19 00:00:19;;;;;;;;;;;;;;;;;;5011350;28;19913;-89
2022/08/19 00:02:45;;;;;;;;;;;;;;;;;;5008794;28;19916;-90
2022/08/19 00:05:10;;;;;;;;;;;;;;;;;;4990962;28;19960;-90
2022/08/19 00:07:36;;;;;;;;;;;;;;;;;;4985922;28;19914;-89
2022/08/19 00:10:01;;;;;;;;;;;;;;;;;;4992542;28;19910;-90
2022/08/19 00:12:26;;;;;;;;;;;;;;;;;;4991598;28;20403;-89
2022/08/19 00:14:52;;;;;;;;;;;;;;;;;;4993507;28;19913;-90
2022/08/19 00:17:18;;;;;;;;;;;;;;;;;;5004325;28;19910;-90
2022/08/19 00:19:43;;;;;;;;;;;;;;;;;;4991315;28;20265;-90
2022/08/19 00:22:08;;;;;;;;;;;;;;;;;;4992911;28;19995;-89
2022/08/19 00:24:34;;;;;;;;;;;;;;;;;;4991838;28;19909;-89
2022/08/19 00:27:01;;;;;;;;;;;;;;;;;;4981269;28;19910;-90
2022/08/19 00:29:26;;;;;;;;;;;;;;;;;;4988259;28;19914;-90
2022/08/19 00:31:54;;;;;;;;;;;;;;;;;;4988825;28;20052;-89
2022/08/19 00:34:19;;;;;;;;;;;;;;;;;;4986459;28;19917;-89
2022/08/19 00:36:44;;;;;;;;;;;;;;;;;;4991352;28;20380;-90
2022/08/19 00:39:09;;;;;;;;;;;;;;;;;;4991817;28;19914;-90
2022/08/19 00:41:34;;;;;;;;;;;;;;;;;;4990957;28;19925;-89
2022/08/19 00:44:00;;;;;;;;;;;;;;;;;;4973995;28;19910;-89
2022/08/19 00:46:25;;;;;;;;;;;;;;;;;;5001397;28;19949;-90
2022/08/19 00:48:50;;;;;;;;;;;;;;;;;;4984210;28;19910;-89
2022/08/19 00:51:15;;;;;;;;;;;;;;;;;;4991094;28;19917;-90
2022/08/19 00:53:41;;;;;;;;;;;;;;;;;;4991727;28;19949;-90
2022/08/19 00:56:06;;;;;;;;;;;;;;;;;;4987639;28;19921;-91
2022/08/19 00:58:31;;;;;;;;;;;;;;;;;;4986459;28;19913;-90
2022/08/19 01:00:56;;;;;;;;;;;;;;;;;;4997805;28;19971;-90
2022/08/19 01:03:22;;;;;;;;;;;;;;;;;;4994801;28;20310;-90
2022/08/19 01:05:47;;;;;;;;;;;;;;;;;;4986396;28;19981;-90
2022/08/19 01:08:12;;;;;;;;;;;;;;;;;;4990995;28;19910;-90
2022/08/19 01:10:37;;;;;;;;;;;;;;;;;;4991410;28;19913;-89
2022/08/19 01:13:02;;;;;;;;;;;;;;;;;;4991450;28;19913;-90
2022/08/19 01:15:28;;;;;;;;;;;;;;;;;;4991421;28;20028;-91
2022/08/19 01:17:53;;;;;;;;;;;;;;;;;;4991600;28;20338;-90
2022/08/19 01:20:19;;;;;;;;;;;;;;;;;;4991136;28;20447;-92
2022/08/19 01:22:44;;;;;;;;;;;;;;;;;;4991399;28;19910;-90
2022/08/19 01:25:09;;;;;;;;;;;;;;;;;;4991390;28;19976;-93
2022/08/19 01:27:35;;;;;;;;;;;;;;;;;;4991466;28;19957;-90
2022/08/19 01:30:00;;;;;;;;;;;;;;;;;;4991498;28;19956;-90
2022/08/19 01:32:25;;;;;;;;;;;;;;;;;;4991265;28;19952;-90
2022/08/19 01:34:51;;;;;;;;;;;;;;;;;;4991045;28;19969;-92
2022/08/19 01:37:16;;;;;;;;;;;;;;;;;;4991520;28;19921;-91
2022/08/19 01:39:41;;;;;;;;;;;;;;;;;;4990974;28;20391;-90
2022/08/19 01:42:09;;;;;;;;;;;;;;;;;;4991774;28;20039;-90
2022/08/19 01:44:36;;;;;;;;;;;;;;;;;;4991787;28;19910;-91
2022/08/19 01:47:01;;;;;;;;;;;;;;;;;;4994298;28;19992;-91
2022/08/19 01:49:26;;;;;;;;;;;;;;;;;;4994209;28;19999;-91
2022/08/19 01:51:51;;;;;;;;;;;;;;;;;;4994242;28;19910;-91
2022/08/19 01:54:17;;;;;;;;;;;;;;;;;;4994308;28;20276;-90
2022/08/19 01:56:42;;;;;;;;;;;;;;;;;;4994167;28;19972;-91
2022/08/19 01:59:07;;;;;;;;;;;;;;;;;;4993929;28;19910;-91
2022/08/19 02:01:33;;;;;;;;;;;;;;;;;;4994248;28;20057;-91
2022/08/19 02:04:00;;;;;;;;;;;;;;;;;;4994015;28;20355;-90
2022/08/19 02:06:25;;;;;;;;;;;;;;;;;;4994063;28;19956;-91
2022/08/19 02:08:50;;;;;;;;;;;;;;;;;;4993807;28;20394;-91
2022/08/19 02:11:15;;;;;;;;;;;;;;;;;;4992877;28;20387;-91
2022/08/19 02:13:41;;;;;;;;;;;;;;;;;;4992819;28;19916;-90
2022/08/19 02:16:06;;;;;;;;;;;;;;;;;;4993612;28;19920;-90
2022/08/19 02:18:31;;;;;;;;;;;;;;;;;;4997544;28;19933;-90
2022/08/19 02:20:56;;;;;;;;;;;;;;;;;;5013070;28;19920;-90
2022/08/19 02:23:21;;;;;;;;;;;;;;;;;;5013736;28;19992;-91
2022/08/19 02:25:47;;;;;;;;;;;;;;;;;;5013110;28;20282;-90
2022/08/19 02:28:12;;;;;;;;;;;;;;;;;;4995767;28;19992;-90
2022/08/19 02:30:38;;;;;;;;;;;;;;;;;;5012888;28;19910;-90
2022/08/19 02:33:03;;;;;;;;;;;;;;;;;;5010048;28;19914;-91
2022/08/19 02:35:28;;;;;;;;;;;;;;;;;;4993149;28;20401;-90
2022/08/19 02:40:37;;;;;;;;;;;;;;;;;;4993509;28;19960;-91
2022/08/19 02:43:02;;;;;;;;;;;;;;;;;;4993133;28;19913;-92
2022/08/19 02:45:28;;;;;;;;;;;;;;;;;;4997740;28;20071;-91
2022/08/19 02:47:53;;;;;;;;;;;;;;;;;;4992545;28;19920;-91
2022/08/19 02:50:18;;;;;;;;;;;;;;;;;;4993472;28;20011;-92
2022/08/19 02:52:43;;;;;;;;;;;;;;;;;;4979638;28;20379;-92
2022/08/19 02:55:08;;;;;;;;;;;;;;;;;;4991388;28;19984;-93
2022/08/19 02:57:34;;;;;;;;;;;;;;;;;;4990158;28;19914;-92
2022/08/19 02:59:59;;;;;;;;;;;;;;;;;;4996063;28;19918;-91
2022/08/19 03:02:24;;;;;;;;;;;;;;;;;;4990612;28;20345;-91
2022/08/19 03:04:49;;;;;;;;;;;;;;;;;;4999099;28;20414;-91
2022/08/19 03:07:15;;;;;;;;;;;;;;;;;;4987389;28;19913;-91
2022/08/19 03:09:40;;;;;;;;;;;;;;;;;;4991175;28;20001;-91
2022/08/19 03:12:05;;;;;;;;;;;;;;;;;;4992596;28;19918;-91
2022/08/19 03:14:30;;;;;;;;;;;;;;;;;;4977379;28;20331;-91
2022/08/19 03:16:55;;;;;;;;;;;;;;;;;;4997173;28;19952;-91
2022/08/19 03:19:23;;;;;;;;;;;;;;;;;;4987954;28;19925;-91
2022/08/19 03:21:49;;;;;;;;;;;;;;;;;;4990789;28;19937;-91
2022/08/19 03:24:14;;;;;;;;;;;;;;;;;;4988830;28;19918;-91
2022/08/19 03:26:39;;;;;;;;;;;;;;;;;;4988252;28;20359;-90
2022/08/19 03:29:04;;;;;;;;;;;;;;;;;;4992826;28;19920;-91
2022/08/19 03:31:30;;;;;;;;;;;;;;;;;;4988185;28;19935;-91
2022/08/19 03:33:56;;;;;;;;;;;;;;;;;;4987994;28;20012;-91
2022/08/19 03:36:22;;;;;;;;;;;;;;;;;;4998189;28;20812;-90
2022/08/19 03:38:48;;;;;;;;;;;;;;;;;;4995565;28;20277;-90
2022/08/19 03:41:13;;;;;;;;;;;;;;;;;;4969747;28;19918;-90
2022/08/19 03:43:38;;;;;;;;;;;;;;;;;;4996642;28;19922;-90
2022/08/19 03:46:04;;;;;;;;;;;;;;;;;;4991554;28;19917;-90
2022/08/19 03:48:29;;;;;;;;;;;;;;;;;;4972287;28;19913;-89
2022/08/19 03:50:55;;;;;;;;;;;;;;;;;;4981264;28;19915;-90
2022/08/19 03:53:20;;;;;;;;;;;;;;;;;;4983434;28;20288;-90
2022/08/19 03:55:45;;;;;;;;;;;;;;;;;;4991003;28;19921;-90
2022/08/19 03:58:11;;;;;;;;;;;;;;;;;;4993983;28;20277;-89
2022/08/19 04:00:36;;;;;;;;;;;;;;;;;;4986021;28;19974;-90
2022/08/19 04:03:09;;;;;;;;;;;;;;;;;;4994062;28;19921;-91
2022/08/19 04:05:34;;;;;;;;;;;;;;;;;;4987880;28;19914;-90
2022/08/19 04:08:00;;;;;;;;;;;;;;;;;;4991763;28;20206;-90
2022/08/19 04:10:25;;;;;;;;;;;;;;;;;;4988935;28;20371;-90
2022/08/19 04:12:50;;;;;;;;;;;;;;;;;;4985397;28;19921;-90
2022/08/19 04:15:16;;;;;;;;;;;;;;;;;;4989836;28;19917;-89
2022/08/19 04:17:41;;;;;;;;;;;;;;;;;;4993903;28;19914;-90
2022/08/19 04:20:06;;;;;;;;;;;;;;;;;;4986308;28;20556;-90
2022/08/19 04:22:31;;;;;;;;;;;;;;;;;;4985376;28;19921;-90
2022/08/19 04:24:56;;;;;;;;;;;;;;;;;;4990272;28;20338;-90
2022/08/19 04:27:22;;;;;;;;;;;;;;;;;;4995094;28;19969;-91
2022/08/19 04:29:47;;;;;;;;;;;;;;;;;;4969257;28;19921;-91
2022/08/19 04:32:14;;;;;;;;;;;;;;;;;;4987503;28;19914;-91
2022/08/19 04:34:40;;;;;;;;;;;;;;;;;;4987651;28;19925;-92
2022/08/19 04:37:06;;;;;;;;;;;;;;;;;;4996133;28;19913;-90
2022/08/19 04:45:00;;;;;;;;;;;;;;;;;;4987700;28;20001;-90
2022/08/19 04:47:25;;;;;;;;;;;;;;;;;;4987196;28;20008;-90
2022/08/19 04:49:51;;;;;;;;;;;;;;;;;;4993492;28;19969;-89
2022/08/19 04:52:16;;;;;;;;;;;;;;;;;;4990471;28;20223;-89
2022/08/19 04:54:41;;;;;;;;;;;;;;;;;;4975302;28;19950;-92
2022/08/19 04:57:06;;;;;;;;;;;;;;;;;;4971505;28;19957;-90
2022/08/19 04:59:33;;;;;;;;;;;;;;;;;;4993729;28;20399;-89
2022/08/19 05:01:58;;;;;;;;;;;;;;;;;;4986989;28;19914;-90
2022/08/19 05:04:23;;;;;;;;;;;;;;;;;;4986484;28;19997;-88
2022/08/19 05:06:48;;;;;;;;;;;;;;;;;;4995772;28;19918;-88
2022/08/19 05:09:14;;;;;;;;;;;;;;;;;;4986314;28;22067;-89
2022/08/19 05:11:39;;;;;;;;;;;;;;;;;;4986233;28;19917;-88
2022/08/19 05:14:04;;;;;;;;;;;;;;;;;;4980574;28;19913;-89
2022/08/19 05:16:29;;;;;;;;;;;;;;;;;;4984649;28;19969;-90
2022/08/19 05:24:22;;;;;;;;;;;;;;;;;;4981309;28;19941;-88
2022/08/19 05:26:47;;;;;;;;;;;;;;;;;;4989350;28;19965;-89
2022/08/19 05:29:12;;;;;;;;;;;;;;;;;;4990087;28;19921;-88
2022/08/19 05:31:41;;;;;;;;;;;;;;;;;;4987823;28;19928;-89
2022/08/19 05:34:06;;;;;;;;;;;;;;;;;;4990651;28;20008;-88
2022/08/19 05:36:31;;;;;;;;;;;;;;;;;;4984162;28;20352;-88
2022/08/19 05:38:57;;;;;;;;;;;;;;;;;;4991650;28;19917;-88
2022/08/19 05:41:29;;;;;;;;;;;;;;;;;;4987788;28;20331;-88
2022/08/19 05:43:55;;;;;;;;;;;;;;;;;;4997778;28;20292;-90
2022/08/19 05:46:20;;;;;;;;;;;;;;;;;;4985851;28;19937;-88
2022/08/19 05:48:46;;;;;;;;;;;;;;;;;;4984352;28;19928;-88
2022/08/19 05:51:11;;;;;;;;;;;;;;;;;;4990091;28;19953;-88
2022/08/19 05:53:36;;;;;;;;;;;;;;;;;;4985260;28;20005;-88
2022/08/19 05:56:01;;;;;;;;;;;;;;;;;;4990017;28;20450;-88
2022/08/19 05:58:26;;;;;;;;;;;;;;;;;;4991660;28;19936;-88
2022/08/19 06:00:54;;;;;;;;;;;;;;;;;;4995464;28;19940;-88
2022/08/19 06:03:19;;;;;;;;;;;;;;;;;;4990457;28;19977;-89
2022/08/19 06:05:44;;;;;;;;;;;;;;;;;;4994365;28;19917;-88
2022/08/19 06:08:09;;;;;;;;;;;;;;;;;;4984719;28;20379;-88
2022/08/19 06:10:35;;;;;;;;;;;;;;;;;;4990717;28;19917;-89
2022/08/19 06:13:00;;;;;;;;;;;;;;;;;;4972609;28;19926;-89
2022/08/19 06:15:27;;;;;;;;;;;;;;;;;;4989481;28;20011;-88
2022/08/19 06:17:52;;;;;;;;;;;;;;;;;;4994217;28;19914;-89
2022/08/19 06:20:17;;;;;;;;;;;;;;;;;;4989251;28;19918;-89
2022/08/19 06:22:43;;;;;;;;;;;;;;;;;;4991171;28;19922;-88
2022/08/19 06:25:09;;;;;;;;;;;;;;;;;;4987186;28;19949;-88
2022/08/19 06:27:34;;;;;;;;;;;;;;;;;;4988387;28;19967;-88
2022/08/19 06:29:59;;;;;;;;;;;;;;;;;;4983274;28;19962;-88
2022/08/19 06:32:24;;;;;;;;;;;;;;;;;;4985636;28;19913;-88
2022/08/19 06:34:49;;;;;;;;;;;;;;;;;;4985461;28;20069;-88
2022/08/19 06:37:14;;;;;;;;;;;;;;;;;;4984676;28;19980;-88
2022/08/19 06:39:40;;;;;;;;;;;;;;;;;;4981955;28;19918;-88
2022/08/19 06:42:06;;;;;;;;;;;;;;;;;;4990726;28;19921;-89
2022/08/19 06:44:34;;;;;;;;;;;;;;;;;;4981983;28;19915;-88
2022/08/19 06:46:59;;;;;;;;;;;;;;;;;;4982178;28;20383;-89
2022/08/19 06:49:27;;;;;;;;;;;;;;;;;;4984121;28;19921;-88
2022/08/19 06:51:52;;;;;;;;;;;;;;;;;;4986207;28;19956;-89
2022/08/19 06:54:17;;;;;;;;;;;;;;;;;;4991394;28;20004;-89
2022/08/19 06:56:45;;;;;;;;;;;;;;;;;;4989994;28;19914;-88
2022/08/19 06:59:10;;;;;;;;;;;;;;;;;;4989947;28;19932;-89
2022/08/19 07:01:37;;;;;;;;;;;;;;;;;;4983349;28;20379;-88
2022/08/19 07:04:02;;;;;;;;;;;;;;;;;;4979163;28;20040;-89
2022/08/19 07:06:27;;;;;;;;;;;;;;;;;;4990357;28;20000;-88
2022/08/19 07:08:52;;;;;;;;;;;;;;;;;;4989997;28;20392;-89
2022/08/19 07:11:18;;;;;;;;;;;;;;;;;;4987458;28;19983;-88
2022/08/19 07:13:44;;;;;;;;;;;;;;;;;;4986040;28;19924;-89
2022/08/19 07:16:10;;;;;;;;;;;;;;;;;;4988671;28;19965;-88
2022/08/19 07:18:35;;;;;;;;;;;;;;;;;;4982753;28;19925;-89
2022/08/19 07:21:00;;;;;;;;;;;;;;;;;;4987123;28;19926;-88
2022/08/19 07:23:25;;;;;;;;;;;;;;;;;;4990259;28;19925;-89
2022/08/19 07:25:50;;;;;;;;;;;;;;;;;;4989608;28;19917;-89
2022/08/19 07:28:15;;;;;;;;;;;;;;;;;;4974982;28;19972;-88
2022/08/19 07:30:41;;;;;;;;;;;;;;;;;;4988145;28;19928;-88
2022/08/19 07:33:06;;;;;;;;;;;;;;;;;;4988428;28;19921;-88
2022/08/19 07:35:31;;;;;;;;;;;;;;;;;;4988025;28;19922;-89
2022/08/19 07:37:57;;;;;;;;;;;;;;;;;;4989311;28;19940;-88
2022/08/19 07:40:22;;;;;;;;;;;;;;;;;;4986929;28;19928;-89
2022/08/19 07:42:47;;;;;;;;;;;;;;;;;;4984776;28;19918;-89
2022/08/19 07:45:12;;;;;;;;;;;;;;;;;;4988493;28;19917;-89
2022/08/19 07:47:38;;;;;;;;;;;;;;;;;;4986175;28;19926;-88
2022/08/19 07:50:04;;;;;;;;;;;;;;;;;;4981382;28;19992;-88
2022/08/19 07:52:29;;;;;;;;;;;;;;;;;;4989278;28;20100;-88
2022/08/19 07:54:54;;;;;;;;;;;;;;;;;;4985529;28;20005;-89
2022/08/19 07:57:19;;;;;;;;;;;;;;;;;;4983647;28;19913;-88
2022/08/19 07:59:44;;;;;;;;;;;;;;;;;;4985691;28;19917;-89
2022/08/19 08:02:10;;;;;;;;;;;;;;;;;;4987598;28;19917;-88
2022/08/19 08:10:03;;;;;;;;;;;;;;;;;;4980787;28;20463;-90
2022/08/19 08:12:28;;;;;;;;;;;;;;;;;;4993118;28;20395;-88
2022/08/19 08:14:53;;;;;;;;;;;;;;;;;;4979592;28;19914;-89
2022/08/19 08:17:19;;;;;;;;;;;;;;;;;;4983495;28;19918;-88
2022/08/19 08:19:44;;;;;;;;;;;;;;;;;;4982150;28;20335;-88
2022/08/19 08:23:21;;;;;;;;;;;;;;;;;;4981106;28;20016;-89
2022/08/19 08:24:57;;;;;;;;;;;;;;;;;;4982991;28;19949;-89
2022/08/19 08:27:23;;;;;;;;;;;;;;;;;;4983626;28;19918;-88
2022/08/19 08:29:48;;;;;;;;;;;;;;;;;;4976322;28;20006;-89
2022/08/19 08:32:14;;;;;;;;;;;;;;;;;;4982753;28;20355;-88
2022/08/19 08:34:39;;;;;;;;;;;;;;;;;;4978604;28;19920;-88
2022/08/19 08:37:04;;;;;;;;;;;;;;;;;;4979412;28;19918;-89
2022/08/19 08:39:29;;;;;;;;;;;;;;;;;;4974112;28;19918;-88
2022/08/19 08:41:55;;;;;;;;;;;;;;;;;;4982122;28;19969;-89
2022/08/19 08:44:20;;;;;;;;;;;;;;;;;;4967768;28;20702;-88
2022/08/19 08:46:45;;;;;;;;;;;;;;;;;;4984089;28;19921;-89
2022/08/19 08:49:11;;;;;;;;;;;;;;;;;;4984372;28;19933;-88
2022/08/19 08:51:36;;;;;;;;;;;;;;;;;;4985075;28;20008;-90
2022/08/19 08:54:02;;;;;;;;;;;;;;;;;;4987313;28;20004;-89
2022/08/19 08:56:27;;;;;;;;;;;;;;;;;;4989958;28;19917;-88
2022/08/19 08:58:52;;;;;;;;;;;;;;;;;;4986776;28;20270;-88
2022/08/19 09:01:20;;;;;;;;;;;;;;;;;;4983842;28;19968;-88
2022/08/19 09:03:45;;;;;;;;;;;;;;;;;;4985499;28;19909;-89
2022/08/19 09:06:11;;;;;;;;;;;;;;;;;;4986561;28;19925;-88
2022/08/19 09:08:38;;;;;;;;;;;;;;;;;;4990729;28;19921;-88
2022/08/19 09:11:04;;;;;;;;;;;;;;;;;;4992519;28;20049;-90
2022/08/19 09:13:31;;;;;;;;;;;;;;;;;;4985227;28;19930;-88
2022/08/19 09:15:57;;;;;;;;;;;;;;;;;;4983451;28;19934;-89
2022/08/19 09:18:22;;;;;;;;;;;;;;;;;;4987589;28;20383;-89
2022/08/19 09:20:47;;;;;;;;;;;;;;;;;;4983342;28;20030;-88
2022/08/19 09:23:12;;;;;;;;;;;;;;;;;;4981567;28;19940;-88
2022/08/19 09:25:39;;;;;;;;;;;;;;;;;;4981923;28;19918;-89
2022/08/19 09:28:05;;;;;;;;;;;;;;;;;;4983070;28;20380;-89
2022/08/19 09:30:30;;;;;;;;;;;;;;;;;;4984096;28;19928;-89
2022/08/19 09:32:55;;;;;;;;;;;;;;;;;;4981275;28;20001;-89
2022/08/19 09:35:21;;;;;;;;;;;;;;;;;;4979321;28;19926;-88
2022/08/19 09:37:47;;;;;;;;;;;;;;;;;;4985093;28;19921;-89
2022/08/19 09:40:12;;;;;;;;;;;;;;;;;;4980641;28;19933;-88
2022/08/19 09:42:37;;;;;;;;;;;;;;;;;;4983684;28;19933;-89
2022/08/19 09:45:03;;;;;;;;;;;;;;;;;;4990352;28;19913;-87
2022/08/19 09:47:28;;;;;;;;;;;;;;;;;;4981414;28;20288;-87
2022/08/19 09:49:54;;;;;;;;;;;;;;;;;;4990489;28;19922;-88
2022/08/19 09:52:19;;;;;;;;;;;;;;;;;;4985516;28;19945;-88
2022/08/19 09:54:45;;;;;;;;;;;;;;;;;;4983382;28;19945;-88
2022/08/19 09:57:10;;;;;;;;;;;;;;;;;;4984594;28;19917;-87
2022/08/19 09:59:35;;;;;;;;;;;;;;;;;;4981423;28;20442;-89
2022/08/19 10:02:00;;;;;;;;;;;;;;;;;;4983991;28;19976;-88
2022/08/19 10:05:47;;;;;;;;;;;;;;;;;;4987534;28;20652;-88
2022/08/19 10:07:13;;;;;;;;;;;;;;;;;;4986769;28;19917;-89
2022/08/19 10:09:40;;;;;;;;;;;;;;;;;;4984510;28;19918;-88
2022/08/19 10:12:05;;;;;;;;;;;;;;;;;;4988527;28;19917;-89
2022/08/19 10:14:31;;;;;;;;;;;;;;;;;;4985285;28;20447;-89
2022/08/19 10:16:56;;;;;;;;;;;;;;;;;;4991217;28;19917;-88
2022/08/19 10:19:21;;;;;;;;;;;;;;;;;;4983928;28;19922;-88
2022/08/19 10:21:46;;;;;;;;;;;;;;;;;;4984567;28;19934;-88
2022/08/19 10:24:12;;;;;;;;;;;;;;;;;;4985812;28;19956;-88
2022/08/19 10:26:37;;;;;;;;;;;;;;;;;;4990863;28;20394;-88
2022/08/19 10:29:04;;;;;;;;;;;;;;;;;;4981792;28;19913;-89
2022/08/19 10:31:29;;;;;;;;;;;;;;;;;;4990181;28;19996;-88
2022/08/19 10:33:57;;;;;;;;;;;;;;;;;;4988450;28;20004;-89
2022/08/19 10:36:25;;;;;;;;;;;;;;;;;;4987468;28;19964;-89
2022/08/19 10:38:50;;;;;;;;;;;;;;;;;;4993189;28;19925;-88
2022/08/19 10:41:15;;;;;;;;;;;;;;;;;;4989449;28;19918;-88
2022/08/19 10:43:40;;;;;;;;;;;;;;;;;;4987491;28;19947;-88
2022/08/19 10:46:05;;;;;;;;;;;;;;;;;;4989068;28;19926;-89
2022/08/19 10:48:31;;;;;;;;;;;;;;;;;;4968554;28;19918;-89
2022/08/19 10:53:39;;;;;;;;;;;;;;;;;;4991933;28;19972;-89
2022/08/19 10:58:48;;;;;;;;;;;;;;;;;;4987439;28;19981;-89
2022/08/19 11:01:13;;;;;;;;;;;;;;;;;;4990469;28;20012;-88
2022/08/19 11:03:39;;;;;;;;;;;;;;;;;;4990247;28;19922;-89
2022/08/19 11:06:04;;;;;;;;;;;;;;;;;;4987713;28;19918;-88
2022/08/19 11:08:30;;;;;;;;;;;;;;;;;;4972588;28;19924;-88
2022/08/19 11:10:57;;;;;;;;;;;;;;;;;;4977122;28;20410;-88
2022/08/19 11:13:23;;;;;;;;;;;;;;;;;;4986610;28;19925;-88
2022/08/19 11:15:50;;;;;;;;;;;;;;;;;;4989021;28;19918;-88
2022/08/19 11:18:16;;;;;;;;;;;;;;;;;;4973706;28;19914;-88
2022/08/19 11:20:41;;;;;;;;;;;;;;;;;;4987827;28;20315;-89
2022/08/19 11:23:07;;;;;;;;;;;;;;;;;;4982887;28;20036;-89
2022/08/19 11:25:33;;;;;;;;;;;;;;;;;;4986019;28;19924;-89
2022/08/19 11:27:58;;;;;;;;;;;;;;;;;;4982176;28;20339;-88
2022/08/19 11:30:23;;;;;;;;;;;;;;;;;;4981532;28;19918;-89
2022/08/19 11:32:49;;;;;;;;;;;;;;;;;;4983644;28;19925;-88
2022/08/19 11:35:14;;;;;;;;;;;;;;;;;;4981252;28;20014;-89
2022/08/19 11:37:40;;;;;;;;;;;;;;;;;;4981951;28;19925;-89
2022/08/19 11:40:05;;;;;;;;;;;;;;;;;;4978935;28;19929;-88
2022/08/19 11:45:14;;;;;;;;;;;;;;;;;;4990647;28;19925;-89
2022/08/19 11:47:39;;;;;;;;;;;;;;;;;;4978349;28;19918;-88
2022/08/19 11:50:05;;;;;;;;;;;;;;;;;;4981264;28;20363;-88
2022/08/19 11:52:30;;;;;;;;;;;;;;;;;;4980290;28;19924;-88
2022/08/19 11:54:56;;;;;;;;;;;;;;;;;;4979719;28;20005;-89
2022/08/19 11:57:21;;;;;;;;;;;;;;;;;;4986096;28;19996;-89
2022/08/19 11:59:46;;;;;;;;;;;;;;;;;;4987050;28;20395;-88
2022/08/19 12:02:11;;;;;;;;;;;;;;;;;;4984531;28;19918;-89
2022/08/19 12:04:36;;;;;;;;;;;;;;;;;;4977900;28;19922;-89
2022/08/19 12:07:01;;;;;;;;;;;;;;;;;;4983165;28;20083;-88
2022/08/19 12:09:27;;;;;;;;;;;;;;;;;;4985176;28;19925;-89
2022/08/19 12:11:52;;;;;;;;;;;;;;;;;;4982062;28;19926;-89
2022/08/19 12:14:17;;;;;;;;;;;;;;;;;;4978045;28;19924;-89
2022/08/19 12:16:42;;;;;;;;;;;;;;;;;;4980859;28;20298;-88
2022/08/19 12:19:07;;;;;;;;;;;;;;;;;;4975995;28;19922;-89
2022/08/19 12:21:32;;;;;;;;;;;;;;;;;;4977180;28;19922;-88
2022/08/19 12:23:58;;;;;;;;;;;;;;;;;;4975501;28;20280;-89
2022/08/19 12:26:23;;;;;;;;;;;;;;;;;;4979335;28;19921;-89
2022/08/19 12:28:48;;;;;;;;;;;;;;;;;;4975696;28;20272;-88
2022/08/19 12:31:13;;;;;;;;;;;;;;;;;;4985730;28;19914;-88
2022/08/19 12:33:38;;;;;;;;;;;;;;;;;;4968137;28;19918;-88
2022/08/19 12:36:04;;;;;;;;;;;;;;;;;;4982678;28;20428;-88
2022/08/19 12:38:29;;;;;;;;;;;;;;;;;;4982328;28;19967;-88
2022/08/19 12:40:54;;;;;;;;;;;;;;;;;;4966769;28;19918;-88
2022/08/19 12:43:20;;;;;;;;;;;;;;;;;;4977368;28;19917;-88
2022/08/19 12:45:45;;;;;;;;;;;;;;;;;;4979845;28;20440;-89
2022/08/19 12:48:10;;;;;;;;;;;;;;;;;;4987662;28;20390;-89
2022/08/19 12:50:35;;;;;;;;;;;;;;;;;;4977807;28;19957;-89
2022/08/19 12:53:00;;;;;;;;;;;;;;;;;;4985985;28;19941;-89
2022/08/19 12:55:28;;;;;;;;;;;;;;;;;;4989239;28;19914;-89
2022/08/19 12:57:53;;;;;;;;;;;;;;;;;;4993529;28;19985;-89
2022/08/19 13:00:20;;;;;;;;;;;;;;;;;;4987649;28;20401;-90
2022/08/19 13:02:46;;;;;;;;;;;;;;;;;;4976253;28;19961;-89
2022/08/19 13:05:11;;;;;;;;;;;;;;;;;;4983519;28;19922;-88
2022/08/19 13:07:39;;;;;;;;;;;;;;;;;;4990467;28;20283;-88
2022/08/19 13:10:04;;;;;;;;;;;;;;;;;;4976762;28;19921;-88
2022/08/19 13:12:31;;;;;;;;;;;;;;;;;;4979678;28;20280;-89
2022/08/19 13:14:57;;;;;;;;;;;;;;;;;;4978689;28;20056;-88
2022/08/19 13:17:22;;;;;;;;;;;;;;;;;;4983556;28;20488;-89
2022/08/19 13:19:48;;;;;;;;;;;;;;;;;;4982004;28;19914;-89
2022/08/19 13:22:13;;;;;;;;;;;;;;;;;;4982483;28;19918;-88
2022/08/19 13:24:38;;;;;;;;;;;;;;;;;;4977138;28;20023;-88
2022/08/19 13:27:03;;;;;;;;;;;;;;;;;;4981402;28;20221;-89
2022/08/19 13:34:56;;;;;;;;;;;;;;;;;;4983529;28;19920;-89
2022/08/19 13:37:40;;;;;;;;;;;;;;;;;;4980406;28;20326;-88
2022/08/19 13:40:06;;;;;;;;;;;;;;;;;;4973672;28;19925;-89
2022/08/19 13:42:32;;;;;;;;;;;;;;;;;;4990812;28;19977;-89
2022/08/19 13:44:58;;;;;;;;;;;;;;;;;;4983739;28;19922;-89
2022/08/19 13:47:25;;;;;;;;;;;;;;;;;;4985257;28;20322;-89
2022/08/19 13:49:50;;;;;;;;;;;;;;;;;;4989912;28;19926;-89
2022/08/19 13:52:16;;;;;;;;;;;;;;;;;;4990532;28;19977;-89
2022/08/19 13:54:44;;;;;;;;;;;;;;;;;;4989213;28;19922;-89
2022/08/19 13:57:09;;;;;;;;;;;;;;;;;;4990908;28;20179;-89
2022/08/19 13:59:34;;;;;;;;;;;;;;;;;;4986668;28;20200;-89
2022/08/19 14:01:59;;;;;;;;;;;;;;;;;;4992594;28;20009;-89
2022/08/19 14:04:25;;;;;;;;;;;;;;;;;;4987981;28;19918;-89
2022/08/19 14:06:57;;;;;;;;;;;;;;;;;;4989694;28;20295;-89
2022/08/19 14:09:29;;;;;;;;;;;;;;;;;;4988891;28;19918;-89
2022/08/19 14:11:55;;;;;;;;;;;;;;;;;;4984580;28;19925;-88
2022/08/19 14:14:20;;;;;;;;;;;;;;;;;;4989022;28;19914;-88
2022/08/19 14:16:47;;;;;;;;;;;;;;;;;;4987778;28;19929;-89
2022/08/19 14:19:13;;;;;;;;;;;;;;;;;;4981041;28;19918;-89
2022/08/19 14:21:39;;;;;;;;;;;;;;;;;;4990278;28;19929;-88
2022/08/19 14:24:04;;;;;;;;;;;;;;;;;;4987132;28;19937;-89
2022/08/19 14:26:29;;;;;;;;;;;;;;;;;;4988273;28;19959;-88
2022/08/19 14:28:57;;;;;;;;;;;;;;;;;;4993159;28;19921;-89
2022/08/19 14:53:37;;;;;;;;;;;;;;;;;;4988921;28;19928;-89
2022/08/19 14:56:01;;;;;;;;;;;;;;;;;;4986458;28;20590;-90
2022/08/19 15:01:33;;;;;;;;;;;;;;;;;;;;;
2022/08/19 15:54:09;;;;;;;;;;;;;;;;;;4981828;28;20430;-85
2022/08/19 16:07:31;;;;;;;;;;;;;;;;;;4987257;28;19928;-87
2022/08/19 16:09:59;;;;;;;;;;;;;;;;;;4987015;28;20292;-87
2022/08/19 16:15:09;;;;;;;;;;;;;;;;;;4987474;28;19913;-86
2022/08/19 16:17:35;;;;;;;;;;;;;;;;;;4987078;28;19918;-88
2022/08/19 16:57:42;;;;;;;;;;;;;;;;;;4996635;28;19924;-87
2022/08/19 17:00:10;;;;;;;;;;;;;;;;;;4997352;28;20287;-88
2022/08/19 17:02:36;;;;;;;;;;;;;;;;;;5002819;28;19930;-87
2022/08/19 17:05:01;;;;;;;;;;;;;;;;;;5007516;28;19955;-87
2022/08/19 17:07:48;;;;;;;;;;;;;;;;;;5003449;28;20370;-87
2022/08/19 17:10:23;;;;;;;;;;;;;;;;;;5015459;28;20029;-89
2022/08/19 17:12:51;;;;;;;;;;;;;;;;;;5003632;28;20008;-87
2022/08/19 17:15:18;;;;;;;;;;;;;;;;;;5005486;28;19921;-89
2022/08/19 17:17:44;;;;;;;;;;;;;;;;;;5007292;28;20004;-87
2022/08/19 17:20:09;;;;;;;;;;;;;;;;;;5018294;28;20024;-87
2022/08/19 17:22:35;;;;;;;;;;;;;;;;;;5007927;28;19925;-87
2022/08/19 17:25:01;;;;;;;;;;;;;;;;;;5007936;28;19921;-87
2022/08/19 17:27:26;;;;;;;;;;;;;;;;;;5009875;28;19917;-87
2022/08/19 17:29:51;;;;;;;;;;;;;;;;;;5010698;28;20390;-87
2022/08/19 17:32:19;;;;;;;;;;;;;;;;;;5011171;28;20008;-88
2022/08/19 17:34:44;;;;;;;;;;;;;;;;;;5003531;28;19921;-88
2022/08/19 17:37:10;;;;;;;;;;;;;;;;;;5002271;28;19913;-86
2022/08/19 17:39:40;;;;;;;;;;;;;;;;;;5010786;28;19917;-87
2022/08/19 17:42:06;;;;;;;;;;;;;;;;;;4998552;28;19926;-88
2022/08/19 17:44:31;;;;;;;;;;;;;;;;;;5011986;28;19917;-87
2022/08/19 17:46:57;;;;;;;;;;;;;;;;;;5008282;28;19940;-88
2022/08/19 17:49:22;;;;;;;;;;;;;;;;;;5007777;28;19921;-87
2022/08/19 17:51:48;;;;;;;;;;;;;;;;;;4994463;28;19952;-89
2022/08/19 17:54:15;;;;;;;;;;;;;;;;;;5011770;28;19910;-88
2022/08/19 17:56:40;;;;;;;;;;;;;;;;;;5017824;28;19917;-88
2022/08/19 17:59:06;;;;;;;;;;;;;;;;;;5027539;28;20385;-88
2022/08/19 18:01:31;;;;;;;;;;;;;;;;;;5027068;28;19968;-88
2022/08/19 18:06:47;;;;;;;;;;;;;;;;;;5019957;28;20016;-88
2022/08/19 18:09:15;;;;;;;;;;;;;;;;;;5032828;28;20452;-88
2022/08/19 18:11:42;;;;;;;;;;;;;;;;;;5023021;28;20416;-88
2022/08/19 18:14:08;;;;;;;;;;;;;;;;;;5020596;28;19909;-87
2022/08/19 18:16:33;;;;;;;;;;;;;;;;;;5024460;28;19913;-86
2022/08/19 18:19:02;;;;;;;;;;;;;;;;;;5035318;28;19918;-88
2022/08/19 18:21:38;;;;;;;;;;;;;;;;;;;;;
2022/08/19 18:24:04;;;;;;;;;;;;;;;;;;5028197;28;19913;-88
2022/08/19 18:26:32;;;;;;;;;;;;;;;;;;5023866;28;19996;-87
2022/08/19 18:28:57;;;;;;;;;;;;;;;;;;5017217;28;20462;-88
2022/08/19 18:34:11;;;;;;;;;;;;;;;;;;4994608;28;20072;-90
2022/08/19 18:36:46;;;;;;;;;;;;;;;;;;;;;
2022/08/19 18:52:58;;;;;;;;;;;;;;;;;;5026967;28;19952;-89
2022/08/19 18:55:25;;;;;;;;;;;;;;;;;;5032864;28;19929;-90
2022/08/19 18:57:53;;;;;;;;;;;;;;;;;;5026823;28;19948;-89
2022/08/19 19:00:18;;;;;;;;;;;;;;;;;;5032927;28;19913;-88
2022/08/19 19:05:31;;;;;;;;;;;;;;;;;;5012997;28;19909;-89
2022/08/19 19:07:58;;;;;;;;;;;;;;;;;;5026366;28;19921;-89
2022/08/19 19:10:25;;;;;;;;;;;;;;;;;;5027074;28;19989;-89
2022/08/19 19:12:53;;;;;;;;;;;;;;;;;;5023222;28;19956;-88
2022/08/19 19:15:20;;;;;;;;;;;;;;;;;;5030448;28;19917;-87
2022/08/19 19:17:48;;;;;;;;;;;;;;;;;;5028766;28;19928;-88
2022/08/19 19:20:18;;;;;;;;;;;;;;;;;;5032693;28;20052;-88
2022/08/19 19:22:52;;;;;;;;;;;;;;;;;;5028621;28;19947;-88
2022/08/19 19:25:25;;;;;;;;;;;;;;;;;;5006386;28;19913;-88
2022/08/19 19:27:59;;;;;;;;;;;;;;;;;;5025337;28;19909;-89
2022/08/19 19:30:29;;;;;;;;;;;;;;;;;;5026137;28;20343;-88
2022/08/19 19:32:57;;;;;;;;;;;;;;;;;;5031685;28;19913;-87
2022/08/19 19:38:10;;;;;;;;;;;;;;;;;;5024266;28;19913;-89
2022/08/19 19:40:38;;;;;;;;;;;;;;;;;;5028727;28;20263;-89
2022/08/19 19:43:05;;;;;;;;;;;;;;;;;;5025832;28;20525;-88